createdAt,value
2023-03-16T00:01:12.390Z,100253.38
2023-03-16T00:03:41.272Z,100281.91
2023-03-16T00:06:10.366Z,100276.69
2023-03-16T00:08:43.804Z,100187.69
2023-03-16T00:11:13.050Z,100292.25
2023-03-16T00:13:43.490Z,100272.34
2023-03-16T00:16:17.606Z,100282.72
2023-03-16T00:18:46.624Z,100273.22
2023-03-16T00:21:16.283Z,100295.66
2023-03-16T00:23:45.068Z,100246.38
2023-03-16T00:26:14.220Z,100322.47
2023-03-16T00:28:43.500Z,100302.56
2023-03-16T00:31:15.480Z,100226.47
2023-03-16T00:33:43.990Z,100319.88
2023-03-16T00:36:13.325Z,100319.84
2023-03-16T00:38:46.478Z,100317.22
2023-03-16T00:41:16.682Z,100344.03
2023-03-16T00:43:49.598Z,100331.91
2023-03-16T00:46:18.897Z,100337.97
2023-03-16T00:48:48.558Z,100337.97
2023-03-16T00:51:19.669Z,100337.06
2023-03-16T00:53:51.757Z,100342.25
2023-03-16T00:56:20.502Z,100369.03
2023-03-16T00:58:49.719Z,100356.91
2023-03-16T01:01:20.335Z,100291.16
2023-03-16T01:03:49.984Z,100364.66
2023-03-16T01:06:21.424Z,100394.06
2023-03-16T01:08:49.963Z,100374.13
2023-03-16T01:11:21.180Z,100378.41
2023-03-16T01:13:54.943Z,100386.19
2023-03-16T01:16:26.663Z,100394.78
2023-03-16T01:18:56.104Z,100381.81
2023-03-16T01:21:24.897Z,100378.34
2023-03-16T01:23:54.639Z,100402.56
2023-03-16T01:26:25.997Z,100341.03
2023-03-16T01:28:55.760Z,100437.13
2023-03-16T01:31:27.585Z,100424.09
2023-03-16T01:33:56.636Z,100425.81
2023-03-16T01:36:28.557Z,100419.75
2023-03-16T01:39:07.498Z,100455.22
2023-03-16T01:41:40.417Z,100431.81
2023-03-16T01:44:19.197Z,100460.41
2023-03-16T01:46:48.388Z,100449.97
2023-03-16T01:49:29.584Z,100481.16
2023-03-16T01:52:07.827Z,100475.06
2023-03-16T01:54:43.266Z,100297.41
2023-03-16T01:57:23.641Z,100489.81
2023-03-16T02:00:19.760Z,100482.81
2023-03-16T02:03:20.840Z,100506.25
2023-03-16T02:06:03.895Z,100504.50
2023-03-16T02:08:35.975Z,100513.09
2023-03-16T02:11:06.465Z,100492.34
2023-03-16T02:13:44.269Z,100516.56
2023-03-16T02:16:20.053Z,100536.50
2023-03-16T02:18:52.499Z,100516.56
2023-03-16T02:21:26.279Z,100541.63
2023-03-16T02:23:55.756Z,100538.19
2023-03-16T02:26:48.806Z,100548.63
2023-03-16T02:30:03.459Z,100558.97
2023-03-16T02:32:41.874Z,100536.44
2023-03-16T02:35:11.623Z,100528.59
2023-03-16T02:37:42.598Z,100499.09
2023-03-16T02:40:18.114Z,100565.84
2023-03-16T02:43:15.697Z,100566.69
2023-03-16T02:45:58.356Z,100532.84
2023-03-16T02:48:39.023Z,100572.69
2023-03-16T02:51:08.217Z,100561.38
2023-03-16T02:53:37.022Z,100586.53
2023-03-16T02:56:06.247Z,100576.97
2023-03-16T02:58:37.436Z,100566.59
2023-03-16T03:01:12.217Z,100592.63
2023-03-16T03:03:41.135Z,100593.53
2023-03-16T03:06:09.895Z,100574.44
2023-03-16T03:08:39.356Z,100559.72
2023-03-16T03:11:08.116Z,100551.00
2023-03-16T03:13:40.018Z,100513.72
2023-03-16T03:16:15.383Z,100601.31
2023-03-16T03:18:44.459Z,100571.84
2023-03-16T03:21:16.305Z,100581.38
2023-03-16T03:23:47.362Z,100538.00
2023-03-16T03:26:16.535Z,100584.00
2023-03-16T03:28:47.001Z,100617.84
2023-03-16T03:31:18.339Z,100608.34
2023-03-16T03:33:47.416Z,100622.25
2023-03-16T03:36:16.399Z,100603.16
2023-03-16T03:38:46.537Z,100616.97
2023-03-16T03:41:15.893Z,100610.91
2023-03-16T03:43:46.169Z,100616.91
2023-03-16T03:46:18.443Z,100622.97
2023-03-16T03:48:47.421Z,100599.47
2023-03-16T03:51:16.479Z,100619.34
2023-03-16T03:53:58.237Z,100629.81
2023-03-16T03:56:45.520Z,100649.75
2023-03-16T03:59:17.545Z,100634.16
2023-03-16T04:02:07.681Z,100623.72
2023-03-16T04:04:45.544Z,100678.38
2023-03-16T04:07:15.727Z,100659.25
2023-03-16T04:09:46.040Z,100653.16
2023-03-16T04:12:27.244Z,100660.03
2023-03-16T04:14:56.204Z,100604.41
2023-03-16T04:17:26.637Z,100680.03
2023-03-16T04:19:59.087Z,100675.72
2023-03-16T04:22:27.705Z,100674.00
2023-03-16T04:24:57.222Z,100668.78
2023-03-16T04:27:28.461Z,100685.38
2023-03-16T04:30:00.381Z,100677.59
2023-03-16T04:32:30.090Z,100695.81
2023-03-16T04:34:59.353Z,100708.84
2023-03-16T04:37:40.109Z,100681.13
2023-03-16T04:40:20.189Z,100694.13
2023-03-16T04:42:55.222Z,100709.75
2023-03-16T04:45:25.206Z,100724.56
2023-03-16T04:47:57.245Z,100701.13
2023-03-16T04:50:26.458Z,100707.25
2023-03-16T04:52:56.427Z,100689.13
2023-03-16T04:55:26.183Z,100684.81
2023-03-16T04:57:55.321Z,100689.28
2023-03-16T05:00:24.869Z,100671.09
2023-03-16T05:03:11.440Z,100586.16
2023-03-16T05:05:41.200Z,100688.53
2023-03-16T05:08:11.572Z,100694.53
2023-03-16T05:10:43.423Z,100720.50
2023-03-16T05:13:12.545Z,100693.63
2023-03-16T05:15:41.297Z,100700.53
2023-03-16T05:18:24.162Z,100724.00
2023-03-16T05:20:55.207Z,100697.09
2023-03-16T05:23:25.601Z,100691.09
2023-03-16T05:26:03.481Z,100680.72
2023-03-16T05:28:35.004Z,100693.78
2023-03-16T05:31:07.666Z,100701.59
2023-03-16T05:33:41.113Z,100723.28
2023-03-16T05:36:13.960Z,100647.00
2023-03-16T05:38:48.407Z,100734.53
2023-03-16T05:41:43.506Z,100707.69
2023-03-16T05:44:24.244Z,100739.81
2023-03-16T05:47:03.640Z,100734.59
2023-03-16T05:49:34.575Z,100734.59
2023-03-16T05:52:07.145Z,100718.09
2023-03-16T05:54:37.165Z,100660.06
2023-03-16T05:57:07.825Z,100729.41
2023-03-16T05:59:37.862Z,100742.38
2023-03-16T06:02:07.027Z,100738.91
2023-03-16T06:04:38.207Z,100748.47
2023-03-16T06:07:07.265Z,100743.25
2023-03-16T06:09:36.644Z,100757.16
2023-03-16T06:12:11.844Z,100747.63
2023-03-16T06:14:41.889Z,100680.03
2023-03-16T06:17:11.561Z,100754.59
2023-03-16T06:19:42.430Z,100758.00
2023-03-16T06:22:11.734Z,100774.41
2023-03-16T06:24:41.126Z,100745.84
2023-03-16T06:27:10.005Z,100751.06
2023-03-16T06:29:52.247Z,100774.47
2023-03-16T06:32:24.150Z,100754.53
2023-03-16T06:34:53.318Z,100754.53
2023-03-16T06:37:22.526Z,100771.84
2023-03-16T06:39:51.389Z,100684.34
2023-03-16T06:42:20.272Z,100774.50
2023-03-16T06:44:49.280Z,100744.16
2023-03-16T06:47:18.490Z,100774.50
2023-03-16T06:49:47.867Z,100706.88
2023-03-16T06:52:21.766Z,100771.88
2023-03-16T06:54:51.707Z,100794.38
2023-03-16T06:57:22.095Z,100784.88
2023-03-16T06:59:51.829Z,100769.31
2023-03-16T07:02:20.829Z,100807.41
2023-03-16T07:04:49.896Z,100799.59
2023-03-16T07:07:19.985Z,100777.06
2023-03-16T07:09:48.853Z,100774.50
2023-03-16T07:12:17.625Z,100767.59
2023-03-16T07:14:49.731Z,100817.81
2023-03-16T07:17:22.885Z,100803.91
2023-03-16T07:19:52.085Z,100788.22
2023-03-16T07:22:20.983Z,100790.63
2023-03-16T07:24:56.745Z,100798.34
2023-03-16T07:27:26.902Z,100798.41
2023-03-16T07:29:55.844Z,100812.34
2023-03-16T07:32:24.809Z,100808.97
2023-03-16T07:34:58.149Z,100825.44
2023-03-16T07:37:31.967Z,100841.97
2023-03-16T07:40:02.656Z,100749.25
2023-03-16T07:42:31.454Z,100826.41
2023-03-16T07:45:18.586Z,100829.09
2023-03-16T07:47:48.327Z,100822.19
2023-03-16T07:50:37.269Z,100832.56
2023-03-16T07:53:06.175Z,100773.63
2023-03-16T07:55:39.850Z,100849.09
2023-03-16T07:58:11.379Z,100823.94
2023-03-16T08:00:43.364Z,100850.81
2023-03-16T08:03:12.543Z,100815.25
2023-03-16T08:05:41.546Z,100828.19
2023-03-16T08:08:19.502Z,100829.91
2023-03-16T08:10:55.011Z,100855.09
2023-03-16T08:13:31.028Z,100836.88
2023-03-16T08:16:02.739Z,100826.38
2023-03-16T08:18:37.680Z,100851.44
2023-03-16T08:21:07.563Z,100859.28
2023-03-16T08:23:36.865Z,100848.06
2023-03-16T08:26:09.730Z,100841.97
2023-03-16T08:28:39.910Z,100847.09
2023-03-16T08:31:13.030Z,100878.22
2023-03-16T08:33:48.560Z,100865.06
2023-03-16T08:36:22.968Z,100841.63
2023-03-16T08:39:06.589Z,100845.09
2023-03-16T08:41:46.684Z,100861.63
2023-03-16T08:44:26.769Z,100875.59
2023-03-16T08:46:56.118Z,100854.91
2023-03-16T08:49:25.810Z,100871.44
2023-03-16T08:52:03.048Z,100884.59
2023-03-16T08:54:33.071Z,100866.41
2023-03-16T08:57:02.139Z,100897.63
2023-03-16T08:59:34.024Z,100897.56
2023-03-16T09:02:05.130Z,100885.41
2023-03-16T09:04:34.071Z,100879.41
2023-03-16T09:07:09.345Z,100917.63
2023-03-16T09:09:39.023Z,100884.66
2023-03-16T09:12:09.488Z,100915.06
2023-03-16T09:14:39.314Z,100915.91
2023-03-16T09:17:08.662Z,100921.13
2023-03-16T09:19:56.274Z,100885.53
2023-03-16T09:22:26.594Z,100910.69
2023-03-16T09:24:55.490Z,100908.09
2023-03-16T09:27:24.579Z,100919.38
2023-03-16T09:29:56.637Z,100870.75
2023-03-16T09:32:25.581Z,100915.84
2023-03-16T09:34:55.205Z,100887.22
2023-03-16T09:37:24.282Z,100893.28
2023-03-16T09:39:57.933Z,100889.84
2023-03-16T09:42:38.866Z,100910.69
2023-03-16T09:45:16.079Z,100932.38
2023-03-16T09:47:49.245Z,100933.25
2023-03-16T09:50:30.279Z,100915.03
2023-03-16T09:53:32.238Z,100933.28
2023-03-16T09:56:16.960Z,100931.53
2023-03-16T09:58:46.536Z,100937.59
2023-03-16T10:01:45.534Z,100947.16
2023-03-16T10:04:43.794Z,100946.28
2023-03-16T10:07:53.013Z,100941.97
2023-03-16T10:10:39.150Z,100921.13
2023-03-16T10:13:24.698Z,100938.47
2023-03-16T10:15:57.434Z,100928.94
2023-03-16T10:18:33.291Z,100946.28
2023-03-16T10:21:03.644Z,100923.69
2023-03-16T10:23:36.114Z,100947.94
2023-03-16T10:26:15.433Z,100949.66
2023-03-16T10:28:46.342Z,100959.22
2023-03-16T10:31:17.728Z,100935.81
2023-03-16T10:33:47.090Z,100945.31
2023-03-16T10:36:26.822Z,100940.09
2023-03-16T10:39:00.491Z,100945.34
2023-03-16T10:41:34.696Z,100963.59
2023-03-16T10:44:27.656Z,100973.09
2023-03-16T10:47:08.932Z,100972.22
2023-03-16T10:49:42.819Z,100970.50
2023-03-16T10:52:27.002Z,100972.19
2023-03-16T10:55:02.053Z,100971.31
2023-03-16T10:57:34.735Z,100987.81
2023-03-16T11:00:13.807Z,100969.59
2023-03-16T11:02:43.125Z,100984.44
2023-03-16T11:05:31.898Z,100987.03
2023-03-16T11:08:14.497Z,101000.06
2023-03-16T11:10:56.340Z,100914.91
2023-03-16T11:13:38.360Z,101008.69
2023-03-16T11:16:46.139Z,101008.69
2023-03-16T11:19:58.481Z,100999.94
2023-03-16T11:22:28.461Z,101001.63
2023-03-16T11:24:57.017Z,101024.19
2023-03-16T11:28:07.346Z,100962.44
2023-03-16T11:31:04.742Z,101016.34
2023-03-16T11:33:35.718Z,101011.09
2023-03-16T11:36:28.404Z,101024.19
2023-03-16T11:39:41.299Z,101005.91
2023-03-16T11:42:16.518Z,101028.44
2023-03-16T11:45:02.224Z,101038.78
2023-03-16T11:47:37.427Z,101032.72
2023-03-16T11:50:20.764Z,101037.88
2023-03-16T11:53:01.484Z,101037.00
2023-03-16T11:55:37.850Z,101035.25
2023-03-16T11:58:58.836Z,101032.56
2023-03-16T12:01:58.149Z,101001.25
2023-03-16T12:04:47.357Z,101033.38
2023-03-16T12:07:26.915Z,101039.47
2023-03-16T12:10:24.818Z,101036.88
2023-03-16T12:13:11.892Z,101035.06
2023-03-16T12:15:48.941Z,101043.78
2023-03-16T12:18:40.174Z,101009.78
2023-03-16T12:21:19.412Z,101056.66
2023-03-16T12:23:56.095Z,101054.06
2023-03-16T12:26:30.880Z,101056.53
2023-03-16T12:29:01.323Z,101056.38
2023-03-16T12:32:15.989Z,101035.47
2023-03-16T12:35:08.621Z,101038.88
2023-03-16T12:37:46.316Z,101060.56
2023-03-16T12:40:45.365Z,101037.09
2023-03-16T12:43:40.112Z,101008.41
2023-03-16T12:46:15.230Z,101023.25
2023-03-16T12:48:51.297Z,101031.97
2023-03-16T12:51:20.042Z,101038.13
2023-03-16T12:53:52.472Z,101052.91
2023-03-16T12:56:30.919Z,101035.53
2023-03-16T12:59:06.924Z,101025.88
2023-03-16T13:01:43.314Z,101038.09
2023-03-16T13:04:24.292Z,101044.19
2023-03-16T13:07:19.935Z,101032.84
2023-03-16T13:09:52.915Z,101039.72
2023-03-16T13:12:33.343Z,101031.78
2023-03-16T13:15:02.860Z,101023.91
2023-03-16T13:17:33.949Z,101063.03
2023-03-16T13:20:08.944Z,101043.03
2023-03-16T13:22:48.559Z,101022.13
2023-03-16T13:25:23.647Z,101076.09
2023-03-16T13:27:56.816Z,101080.44
2023-03-16T13:30:47.922Z,101087.38
2023-03-16T13:33:29.563Z,101054.31
2023-03-16T13:36:00.838Z,101068.22
2023-03-16T13:38:30.282Z,101052.50
2023-03-16T13:41:04.710Z,101045.50
2023-03-16T13:43:36.542Z,101061.13
2023-03-16T13:46:19.599Z,101085.38
2023-03-16T13:48:49.789Z,101087.09
2023-03-16T13:51:21.805Z,101101.94
2023-03-16T13:53:51.914Z,101078.38
2023-03-16T13:56:27.700Z,101091.44
2023-03-16T13:58:59.484Z,101117.59
2023-03-16T14:01:32.951Z,101122.78
2023-03-16T14:04:09.401Z,101105.38
2023-03-16T14:06:39.361Z,101108.88
2023-03-16T14:09:18.682Z,101120.19
2023-03-16T14:11:49.403Z,101105.38
2023-03-16T14:14:26.941Z,101100.94
2023-03-16T14:17:03.695Z,101099.13
2023-03-16T14:19:43.037Z,101128.66
2023-03-16T14:22:19.010Z,101114.69
2023-03-16T14:24:55.532Z,101051.94
2023-03-16T14:27:44.996Z,101126.72
2023-03-16T14:30:26.846Z,101113.75
2023-03-16T14:33:03.068Z,101154.66
2023-03-16T14:35:43.550Z,101069.19
2023-03-16T14:38:36.898Z,101161.53
2023-03-16T14:41:10.403Z,101172.00
2023-03-16T14:43:48.459Z,101144.97
2023-03-16T14:46:28.620Z,101131.81
2023-03-16T14:49:17.776Z,101143.22
2023-03-16T14:51:49.396Z,101140.47
2023-03-16T14:54:22.568Z,101173.56
2023-03-16T14:56:54.230Z,101175.31
2023-03-16T14:59:23.196Z,101138.69
2023-03-16T15:01:55.428Z,101081.22
2023-03-16T15:04:36.190Z,101091.69
2023-03-16T15:07:35.316Z,101137.06
2023-03-16T15:10:11.355Z,101134.44
2023-03-16T15:12:41.720Z,101159.75
2023-03-16T15:15:19.713Z,101164.09
2023-03-16T15:17:51.203Z,101171.06
2023-03-16T15:20:26.234Z,101129.31
2023-03-16T15:22:55.233Z,101141.47
2023-03-16T15:25:42.652Z,101165.88
2023-03-16T15:28:19.472Z,101168.50
2023-03-16T15:31:04.768Z,101133.66
2023-03-16T15:33:35.490Z,101148.50
2023-03-16T15:36:15.496Z,101139.78
2023-03-16T15:38:49.590Z,101143.19
2023-03-16T15:41:22.050Z,101161.44
2023-03-16T15:43:53.170Z,101150.97
2023-03-16T15:46:25.152Z,101173.56
2023-03-16T15:48:54.459Z,101143.97
2023-03-16T15:51:31.027Z,101174.41
2023-03-16T15:54:06.061Z,101130.03
2023-03-16T15:56:50.971Z,101089.06
2023-03-16T15:59:22.860Z,101156.16
2023-03-16T16:01:53.165Z,101157.06
2023-03-16T16:04:25.822Z,101180.50
2023-03-16T16:06:56.032Z,101181.38
2023-03-16T16:09:26.269Z,101129.06
2023-03-16T16:11:54.956Z,101149.94
2023-03-16T16:14:27.349Z,101163.88
2023-03-16T16:16:56.373Z,101124.78
2023-03-16T16:19:29.198Z,101133.41
2023-03-16T16:21:57.912Z,101150.03
2023-03-16T16:24:27.212Z,101166.53
2023-03-16T16:26:56.284Z,101136.06
2023-03-16T16:29:30.704Z,101168.22
2023-03-16T16:31:59.991Z,101187.38
2023-03-16T16:34:29.325Z,101190.81
2023-03-16T16:36:58.858Z,101160.34
2023-03-16T16:39:28.072Z,101165.53
2023-03-16T16:41:57.500Z,101169.03
2023-03-16T16:44:34.426Z,101166.38
2023-03-16T16:47:04.713Z,101148.97
2023-03-16T16:49:35.489Z,101176.81
2023-03-16T16:52:04.787Z,101187.34
2023-03-16T16:54:33.610Z,101163.84
2023-03-16T16:57:09.410Z,101197.81
2023-03-16T16:59:39.048Z,101162.09
2023-03-16T17:02:30.502Z,101104.53
2023-03-16T17:04:59.365Z,101167.28
2023-03-16T17:07:28.613Z,101162.94
2023-03-16T17:09:57.244Z,101149.78
2023-03-16T17:12:26.546Z,101165.44
2023-03-16T17:14:58.007Z,101199.41
2023-03-16T17:17:29.898Z,101190.72
2023-03-16T17:19:59.084Z,101175.81
2023-03-16T17:22:29.146Z,101162.78
2023-03-16T17:24:59.282Z,101209.84
2023-03-16T17:27:32.923Z,101181.09
2023-03-16T17:30:02.623Z,101188.94
2023-03-16T17:32:31.718Z,101192.38
2023-03-16T17:35:00.594Z,101196.75
2023-03-16T17:37:29.493Z,101200.19
2023-03-16T17:39:58.696Z,101176.59
2023-03-16T17:42:27.812Z,101188.88
2023-03-16T17:44:57.235Z,101192.38
2023-03-16T17:47:28.374Z,101112.22
2023-03-16T17:49:57.744Z,101185.38
2023-03-16T17:52:30.360Z,101204.59
2023-03-16T17:54:59.520Z,101100.94
2023-03-16T17:57:32.719Z,101147.97
2023-03-16T18:00:03.302Z,101167.22
2023-03-16T18:02:55.917Z,101150.53
2023-03-16T18:05:31.066Z,101209.78
2023-03-16T18:08:07.896Z,101182.00
2023-03-16T18:10:38.438Z,101167.13
2023-03-16T18:13:15.137Z,101170.56
2023-03-16T18:15:45.967Z,101185.34
2023-03-16T18:18:21.306Z,101191.38
2023-03-16T18:20:51.602Z,101218.31
2023-03-16T18:23:23.264Z,101201.84
2023-03-16T18:25:55.639Z,101188.78
2023-03-16T18:28:24.411Z,101218.38
2023-03-16T18:30:54.385Z,101193.97
2023-03-16T18:33:35.285Z,101218.38
2023-03-16T18:36:14.046Z,101195.72
2023-03-16T18:38:46.414Z,101219.22
2023-03-16T18:41:26.215Z,101214.72
2023-03-16T18:43:59.279Z,101193.06
2023-03-16T18:46:32.560Z,101207.09
2023-03-16T18:49:05.719Z,101205.34
2023-03-16T18:51:34.514Z,101216.56
2023-03-16T18:54:03.357Z,101190.38
2023-03-16T18:56:32.493Z,101182.63
2023-03-16T18:59:01.254Z,101192.13
2023-03-16T19:01:32.505Z,101195.56
2023-03-16T19:04:03.035Z,101171.94
2023-03-16T19:06:36.088Z,101225.13
2023-03-16T19:09:14.126Z,101215.56
2023-03-16T19:11:44.988Z,101196.38
2023-03-16T19:14:19.599Z,101172.78
2023-03-16T19:16:48.301Z,101218.00
2023-03-16T19:19:17.707Z,101209.34
2023-03-16T19:21:46.589Z,101216.28
2023-03-16T19:24:49.866Z,101230.13
2023-03-16T19:27:24.866Z,101225.88
2023-03-16T19:29:55.785Z,101206.72
2023-03-16T19:32:24.741Z,101221.47
2023-03-16T19:34:53.873Z,101211.69
2023-03-16T19:37:24.624Z,101222.03
2023-03-16T19:39:53.572Z,101199.09
2023-03-16T19:42:29.217Z,101200.56
2023-03-16T19:44:58.074Z,101144.38
2023-03-16T19:47:32.872Z,101217.47
2023-03-16T19:50:02.614Z,101211.88
2023-03-16T19:52:33.351Z,101137.50
2023-03-16T19:55:05.031Z,101208.72
2023-03-16T19:57:34.650Z,101204.16
2023-03-16T20:00:04.452Z,101207.41
2023-03-16T20:02:37.852Z,101236.78
2023-03-16T20:05:07.653Z,101225.97
2023-03-16T20:07:38.875Z,101227.34
2023-03-16T20:10:08.525Z,101224.44
2023-03-16T20:12:39.456Z,101213.56
2023-03-16T20:15:15.494Z,101153.72
2023-03-16T20:17:45.129Z,101216.28
2023-03-16T20:20:35.056Z,101242.06
2023-03-16T20:23:04.095Z,101224.31
2023-03-16T20:25:35.471Z,101150.56
2023-03-16T20:28:04.649Z,101218.34
2023-03-16T20:30:36.530Z,101205.06
2023-03-16T20:33:05.681Z,101198.03
2023-03-16T20:35:35.006Z,101140.97
2023-03-16T20:38:03.668Z,101242.06
2023-03-16T20:40:32.588Z,101213.00
2023-03-16T20:43:01.768Z,101218.91
2023-03-16T20:45:31.176Z,101210.13
2023-03-16T20:47:59.988Z,101209.03
2023-03-16T20:50:31.290Z,101194.06
2023-03-16T20:53:00.045Z,101241.03
2023-03-16T20:55:29.811Z,101231.13
2023-03-16T20:57:59.268Z,101214.41
2023-03-16T21:00:36.015Z,101252.66
2023-03-16T21:03:19.769Z,101206.00
2023-03-16T21:05:49.320Z,101214.81
2023-03-16T21:08:18.868Z,101218.97
2023-03-16T21:10:50.167Z,101233.72
2023-03-16T21:13:34.535Z,101214.13
2023-03-16T21:16:05.121Z,101219.94
2023-03-16T21:18:33.858Z,101235.50
2023-03-16T21:21:03.809Z,101235.00
2023-03-16T21:23:32.593Z,101196.19
2023-03-16T21:26:04.387Z,101276.41
2023-03-16T21:28:35.334Z,101269.28
2023-03-16T21:31:06.172Z,101262.50
2023-03-16T21:33:39.940Z,101273.94
2023-03-16T21:36:15.965Z,101239.06
2023-03-16T21:38:45.748Z,101252.03
2023-03-16T21:41:15.571Z,101229.22
2023-03-16T21:43:45.636Z,101208.94
2023-03-16T21:46:17.178Z,101246.38
2023-03-16T21:48:50.250Z,101233.91
2023-03-16T21:51:30.993Z,101237.38
2023-03-16T21:53:59.930Z,101266.91
2023-03-16T21:56:29.647Z,101258.66
2023-03-16T21:58:58.511Z,101239.81
2023-03-16T22:01:32.933Z,101274.53
2023-03-16T22:04:09.510Z,101229.94
2023-03-16T22:06:38.985Z,101248.22
2023-03-16T22:09:08.210Z,101220.63
2023-03-16T22:11:36.972Z,101261.59
2023-03-16T22:14:05.825Z,101281.47
2023-03-16T22:16:37.244Z,101269.88
2023-03-16T22:19:07.171Z,101269.75
2023-03-16T22:21:41.514Z,101263.31
2023-03-16T22:24:29.077Z,101264.53
2023-03-16T22:26:58.844Z,101269.59
2023-03-16T22:29:34.163Z,101252.94
2023-03-16T22:32:08.153Z,101246.38
2023-03-16T22:34:56.668Z,101293.22
2023-03-16T22:37:27.972Z,101294.66
2023-03-16T22:39:59.287Z,101261.06
2023-03-16T22:42:39.174Z,101289.59
2023-03-16T22:45:22.230Z,101271.56
2023-03-16T22:47:51.098Z,101275.47
2023-03-16T22:50:22.688Z,101263.66
2023-03-16T22:52:56.689Z,101272.84
2023-03-16T22:55:33.495Z,101311.50
2023-03-16T22:58:35.969Z,101314.63
2023-03-16T23:01:28.862Z,101293.31
2023-03-16T23:03:57.630Z,101318.00
2023-03-16T23:06:30.870Z,101319.75
2023-03-16T23:09:00.012Z,101289.03
2023-03-16T23:11:37.306Z,101223.22
2023-03-16T23:14:15.717Z,101302.34
2023-03-16T23:16:45.601Z,101302.75
2023-03-16T23:19:32.657Z,101217.22
2023-03-16T23:22:04.152Z,101283.22
2023-03-16T23:24:34.516Z,101299.28
2023-03-16T23:27:15.558Z,101282.84
2023-03-16T23:29:44.863Z,101296.03
2023-03-16T23:32:14.114Z,101319.19
2023-03-16T23:34:42.860Z,101282.22
2023-03-16T23:37:12.111Z,101338.69
2023-03-16T23:39:40.812Z,101331.44
2023-03-16T23:42:10.074Z,101217.34
2023-03-16T23:44:38.815Z,101338.88
2023-03-16T23:47:07.879Z,101316.94
2023-03-16T23:49:43.372Z,101345.09
2023-03-16T23:52:14.192Z,101319.84
2023-03-16T23:54:44.111Z,101354.00
2023-03-16T23:57:12.940Z,101338.69
2023-03-16T23:59:42.020Z,101338.84
